Time;durP1;ratioP1;P1;durP2;ratioP2;P2;SDS_P1;SDS_P2;PMS_P1;PMS_P2;Temp;Humidity;BMP_temperature;BMP_pressure;BME280_temperature;BME280_humidity;BME280_pressure;Samples;Min_cycle;Max_cycle;Signal;HPM_P1;HPM_P2
2022/01/10 00:01:46;;;;;;;;;34.25;30.00;;;;;8.01;66.14;100576.22;5059819;28;45307;-51
2022/01/10 00:04:11;;;;;;;;;36.00;32.50;;;;;8.01;66.05;100581.44;5060229;28;45414;-57
2022/01/10 00:06:37;;;;;;;;;37.75;34.75;;;;;8.01;65.77;100587.53;5060080;28;45530;-57
2022/01/10 00:09:03;;;;;;;;;42.25;33.00;;;;;8.03;65.95;100582.31;5060150;28;45526;-57
2022/01/10 00:11:29;;;;;;;;;34.50;32.00;;;;;8.04;65.96;100582.28;5060026;28;46388;-56
2022/01/10 00:13:54;;;;;;;;;33.50;32.25;;;;;8.04;65.95;100598.00;5059736;28;45205;-57
2022/01/10 00:16:20;;;;;;;;;32.25;30.00;;;;;8.03;65.82;100596.25;5059715;28;45274;-56
2022/01/10 00:18:45;;;;;;;;;36.50;33.25;;;;;8.04;66.00;100600.63;5059908;28;45522;-57
2022/01/10 00:21:10;;;;;;;;;34.25;33.25;;;;;8.03;65.95;100601.50;5060012;28;45396;-56
2022/01/10 00:23:36;;;;;;;;;37.00;32.00;;;;;8.03;65.78;100600.63;5053418;28;45731;-56
2022/01/10 00:26:02;;;;;;;;;35.75;35.00;;;;;8.02;66.15;100604.97;5058875;28;45425;-57
2022/01/10 00:28:27;;;;;;;;;42.75;34.25;;;;;8.03;66.00;100611.97;5060031;28;45389;-57
2022/01/10 00:30:52;;;;;;;;;44.25;35.75;;;;;8.02;65.99;100612.81;5059243;28;45315;-57
2022/01/10 00:33:18;;;;;;;;;36.00;34.00;;;;;8.01;65.94;100616.31;5057693;28;45347;-56
2022/01/10 00:35:43;;;;;;;;;43.00;36.00;;;;;8.01;66.36;100616.31;5059268;28;45515;-57
2022/01/10 00:38:08;;;;;;;;;31.50;30.50;;;;;8.03;66.16;100630.28;5060003;28;45329;-56
2022/01/10 00:40:34;;;;;;;;;41.25;36.00;;;;;8.02;66.04;100622.44;5059011;28;45368;-57
2022/01/10 00:42:59;;;;;;;;;39.25;34.00;;;;;8.03;65.83;100630.28;5056682;28;45354;-57
2022/01/10 00:45:27;;;;;;;;;37.50;32.25;;;;;8.03;65.98;100632.91;5059500;28;45351;-56
2022/01/10 00:47:55;;;;;;;;;40.75;35.00;;;;;8.03;65.93;100635.50;5058858;28;45533;-56
2022/01/10 00:50:21;;;;;;;;;35.75;32.25;;;;;8.02;65.95;100631.16;5059425;28;45971;-56
2022/01/10 00:52:46;;;;;;;;;35.50;34.00;;;;;8.05;65.74;100635.50;5059036;28;45481;-57
2022/01/10 00:55:12;;;;;;;;;35.75;32.75;;;;;8.03;66.12;100635.50;5059497;28;45308;-57
2022/01/10 00:57:38;;;;;;;;;37.25;34.00;;;;;8.09;65.89;100638.09;5059182;28;45315;-57
2022/01/10 01:00:10;;;;;;;;;41.50;36.00;;;;;8.10;66.23;100639.84;5059259;28;45938;-57
2022/01/10 01:02:35;;;;;;;;;33.00;29.25;;;;;8.12;66.03;100637.22;5057183;28;45768;-56
2022/01/10 01:05:05;;;;;;;;;33.75;32.00;;;;;8.12;66.02;100647.69;5037800;28;45408;-56
2022/01/10 01:07:30;;;;;;;;;37.75;35.25;;;;;8.12;66.06;100650.28;5038306;28;45476;-56
2022/01/10 01:10:29;;;;;;;;;40.50;36.50;;;;;8.12;66.28;100651.16;5039622;28;46214;-55
2022/01/10 01:12:50;;;;;;;;;42.50;35.00;;;;;8.11;66.05;100648.56;5039671;28;45419;-54
2022/01/10 01:15:34;;;;;;;;;34.75;31.75;;;;;8.11;66.20;100667.75;5058228;28;45320;-51
2022/01/10 01:25:51;;;;;;;;;42.00;36.00;;;;;8.09;66.23;100690.44;5060048;28;45432;-52
2022/01/10 01:28:17;;;;;;;;;50.50;36.75;;;;;8.08;65.99;100693.94;5045904;28;45535;-48
2022/01/10 01:30:43;;;;;;;;;21.25;17.25;;;;;8.08;66.16;100698.31;5039900;28;45318;-52
2022/01/10 01:33:09;;;;;;;;;47.50;38.75;;;;;8.08;66.32;100703.53;5043861;28;45318;-52
2022/01/10 01:35:37;;;;;;;;;40.75;36.25;;;;;8.07;66.17;100713.13;5042569;28;45396;-49
2022/01/10 01:38:03;;;;;;;;;37.50;33.25;;;;;8.07;66.39;100713.13;5042473;28;45570;-51
2022/01/10 01:40:30;;;;;;;;;41.50;36.00;;;;;8.07;66.36;100715.75;5040690;28;45214;-47
2022/01/10 01:42:56;;;;;;;;;43.50;36.75;;;;;8.06;66.30;100716.66;5039533;28;45631;-52
2022/01/10 01:45:40;;;;;;;;;45.25;37.25;;;;;8.05;66.40;100720.13;5039093;28;45420;-49
2022/01/10 01:48:05;;;;;;;;;42.00;35.25;;;;;8.06;66.11;100721.00;5039637;28;45572;-52
2022/01/10 01:50:31;;;;;;;;;40.25;36.50;;;;;8.05;66.19;100730.59;5039649;28;45377;-48
2022/01/10 01:52:56;;;;;;;;;38.75;34.50;;;;;8.04;66.11;100736.72;5039376;28;45271;-52
2022/01/10 01:55:22;;;;;;;;;44.00;37.25;;;;;8.03;66.33;100753.28;5039780;28;45456;-51
2022/01/10 01:57:48;;;;;;;;;37.75;35.50;;;;;8.02;66.37;100748.06;5021505;28;45300;-50
2022/01/10 02:00:14;;;;;;;;;40.50;35.25;;;;;8.02;66.18;100753.28;5039461;28;46034;-52
2022/01/10 02:02:39;;;;;;;;;40.25;36.50;;;;;8.01;66.37;100749.78;5039243;28;45338;-52
2022/01/10 02:05:05;;;;;;;;;42.75;36.25;;;;;8.01;66.18;100749.78;5039855;28;45384;-52
2022/01/10 02:07:30;;;;;;;;;40.00;36.50;;;;;8.02;66.37;100751.53;5038967;28;45212;-51
2022/01/10 02:09:56;;;;;;;;;43.75;36.25;;;;;8.02;66.26;100743.69;5039417;28;46596;-52
2022/01/10 02:12:23;;;;;;;;;39.50;36.00;;;;;8.00;66.38;100748.06;5039291;28;45341;-50
2022/01/10 02:14:48;;;;;;;;;38.25;35.25;;;;;8.02;66.19;100754.16;5049292;28;45345;-47
2022/01/10 02:17:16;;;;;;;;;35.75;32.75;;;;;8.03;66.15;100760.28;5039031;28;45477;-50
2022/01/10 02:20:03;;;;;;;;;39.50;36.75;;;;;8.00;66.35;100755.94;5039090;28;45401;-48
2022/01/10 02:22:28;;;;;;;;;42.00;34.75;;;;;8.01;66.42;100759.41;5039061;28;45339;-50
2022/01/10 02:24:53;;;;;;;;;44.50;37.25;;;;;8.02;66.15;100758.53;5039361;28;45238;-49
2022/01/10 02:27:23;;;;;;;;;41.00;35.25;;;;;8.00;66.08;100755.94;5020955;28;45495;-49
2022/01/10 02:29:49;;;;;;;;;43.25;36.00;;;;;8.00;66.05;100766.41;5056095;28;46147;-52
2022/01/10 02:32:15;;;;;;;;;50.75;36.50;;;;;8.01;66.25;100759.41;5059038;28;45298;-49
2022/01/10 02:34:41;;;;;;;;;54.25;45.75;;;;;8.00;65.92;100762.88;5059119;28;45444;-51
2022/01/10 02:37:06;;;;;;;;;46.50;37.25;;;;;7.98;65.98;100763.75;5059157;28;45336;-49
2022/01/10 02:39:32;;;;;;;;;48.00;41.50;;;;;7.97;66.21;100758.53;5059081;28;46910;-50
2022/01/10 02:41:57;;;;;;;;;54.25;44.00;;;;;7.94;66.08;100759.41;5062558;28;45353;-52
2022/01/10 02:44:22;;;;;;;;;42.25;36.25;;;;;7.92;66.16;100760.31;5044479;28;45409;-52
2022/01/10 02:46:48;;;;;;;;;50.00;38.75;;;;;7.90;66.24;100767.28;5062375;28;45321;-48
2022/01/10 02:49:22;;;;;;;;;48.25;41.00;;;;;7.90;66.19;100773.41;5062217;28;46092;-52
2022/01/10 02:51:47;;;;;;;;;54.00;41.00;;;;;7.89;66.02;100778.63;5062313;28;45303;-49
2022/01/10 02:54:14;;;;;;;;;51.50;43.50;;;;;7.87;65.88;100781.22;5062311;28;45513;-48
2022/01/10 02:56:46;;;;;;;;;49.50;39.25;;;;;7.83;66.34;100779.50;5062368;28;45313;-48
2022/01/10 02:59:12;;;;;;;;;50.00;40.50;;;;;7.83;65.93;100791.72;5062021;28;47302;-49
2022/01/10 03:01:37;;;;;;;;;51.75;43.25;;;;;7.80;66.16;100806.56;5062121;28;45470;-49
2022/01/10 03:04:03;;;;;;;;;56.25;44.25;;;;;7.78;66.15;100804.81;5062250;28;46534;-48
2022/01/10 03:06:28;;;;;;;;;55.25;45.00;;;;;7.76;66.17;100806.56;5062222;28;45289;-50
2022/01/10 03:08:53;;;;;;;;;55.75;44.50;;;;;7.73;66.08;100809.19;5061821;28;46012;-50
2022/01/10 03:11:19;;;;;;;;;49.00;40.25;;;;;7.71;66.03;100813.53;5062175;28;45379;-48
2022/01/10 03:13:44;;;;;;;;;59.00;46.75;;;;;7.69;66.00;100824.00;5057171;28;45526;-51
2022/01/10 03:16:09;;;;;;;;;50.25;43.25;;;;;7.64;66.04;100812.69;5023892;28;45606;-51
2022/01/10 03:18:35;;;;;;;;;52.50;43.00;;;;;7.61;66.30;100823.13;5041722;28;46140;-51
2022/01/10 03:21:00;;;;;;;;;54.50;43.75;;;;;7.49;66.01;100811.81;5041713;28;45344;-49
2022/01/10 03:23:25;;;;;;;;;51.75;41.50;;;;;7.51;65.92;100816.16;5041941;28;45289;-50
2022/01/10 03:25:50;;;;;;;;;47.00;41.50;;;;;7.54;66.19;100832.72;5041719;28;45573;-49
2022/01/10 03:28:16;;;;;;;;;47.00;40.50;;;;;7.52;65.94;100844.06;5027803;28;46713;-52
2022/01/10 03:30:42;;;;;;;;;55.25;42.50;;;;;7.46;65.68;100834.50;5061642;28;45337;-52
2022/01/10 03:33:08;;;;;;;;;48.75;39.00;;;;;7.48;66.16;100832.72;5061744;28;45316;-51
2022/01/10 03:35:34;;;;;;;;;48.75;41.75;;;;;7.44;66.01;100829.25;5061760;28;45163;-50
2022/01/10 03:37:59;;;;;;;;;50.75;42.00;;;;;7.43;65.98;100834.47;5061655;28;46116;-51
2022/01/10 03:40:25;;;;;;;;;51.50;42.50;;;;;7.41;65.97;100844.06;5061601;28;45175;-49
2022/01/10 03:42:50;;;;;;;;;49.75;41.75;;;;;7.41;65.82;100846.66;5061706;28;45230;-47
2022/01/10 03:45:15;;;;;;;;;52.25;43.75;;;;;7.39;65.75;100843.19;5061539;28;45493;-48
2022/01/10 03:47:42;;;;;;;;;55.25;46.50;;;;;7.35;65.89;100839.69;5061410;28;46341;-51
2022/01/10 03:50:07;;;;;;;;;54.75;42.75;;;;;7.34;66.06;100851.03;5061739;28;45499;-52
2022/01/10 03:52:33;;;;;;;;;51.75;42.00;;;;;7.28;66.19;100851.03;5060699;28;45370;-50
2022/01/10 03:54:59;;;;;;;;;49.00;41.00;;;;;7.28;65.97;100851.03;5061345;28;45462;-52
2022/01/10 03:57:25;;;;;;;;;43.50;38.75;;;;;7.26;65.87;100852.78;5043132;28;47242;-51
2022/01/10 03:59:50;;;;;;;;;52.75;44.25;;;;;7.24;66.22;100863.22;5040042;28;45326;-51
2022/01/10 04:02:15;;;;;;;;;48.25;39.00;;;;;7.21;66.10;100870.16;5038626;28;45348;-51
2022/01/10 04:04:41;;;;;;;;;46.00;40.25;;;;;7.20;65.93;100874.53;5055171;28;45431;-51
2022/01/10 04:07:07;;;;;;;;;48.50;39.75;;;;;7.19;66.03;100885.00;5056931;28;45403;-50
2022/01/10 04:09:32;;;;;;;;;52.00;42.75;;;;;7.16;65.81;100880.63;5059115;28;45471;-55
2022/01/10 04:11:58;;;;;;;;;52.25;41.50;;;;;7.13;65.81;100878.88;5055675;28;45336;-51
2022/01/10 04:14:23;;;;;;;;;52.75;41.25;;;;;7.11;65.81;100875.38;5053021;28;45341;-50
2022/01/10 04:16:49;;;;;;;;;55.75;42.75;;;;;7.11;65.90;100877.16;5054605;28;45216;-47
2022/01/10 04:19:14;;;;;;;;;45.75;40.00;;;;;7.10;66.03;100881.47;5057768;28;45308;-49
2022/01/10 04:21:40;;;;;;;;;49.50;39.00;;;;;7.10;65.73;100893.69;5053652;28;45182;-51
2022/01/10 04:24:05;;;;;;;;;52.50;41.50;;;;;7.06;65.75;100900.66;5056035;28;45341;-51
2022/01/10 04:26:31;;;;;;;;;49.50;42.00;;;;;7.05;65.81;100893.66;5052095;28;46234;-51
2022/01/10 04:28:56;;;;;;;;;51.25;42.50;;;;;7.04;65.92;100901.50;5055680;28;45607;-50
2022/01/10 04:31:21;;;;;;;;;50.50;39.75;;;;;7.02;65.90;100906.75;5051662;28;45316;-52
2022/01/10 04:33:47;;;;;;;;;48.50;41.00;;;;;7.00;65.90;100924.13;5044703;28;45331;-51
2022/01/10 04:36:12;;;;;;;;;46.50;39.00;;;;;6.98;65.94;100918.91;5039722;28;46075;-51
2022/01/10 04:38:42;;;;;;;;;55.00;41.75;;;;;6.96;65.97;100919.78;5020986;28;45771;-51
2022/01/10 04:41:07;;;;;;;;;46.25;39.00;;;;;6.94;65.81;100922.41;5040077;28;45180;-51
2022/01/10 04:43:34;;;;;;;;;52.75;41.00;;;;;6.91;65.88;100922.38;5040665;28;45286;-47
2022/01/10 04:46:00;;;;;;;;;48.00;41.75;;;;;6.88;65.73;100930.22;5040070;28;45262;-50
2022/01/10 04:48:25;;;;;;;;;49.50;39.50;;;;;6.88;65.80;100945.00;5040518;28;45264;-51
2022/01/10 04:53:16;;;;;;;;;52.50;38.00;;;;;6.85;65.69;100947.59;5040386;28;45329;-48
2022/01/10 04:55:41;;;;;;;;;45.25;38.00;;;;;6.82;65.78;100957.16;5040178;28;45373;-49
2022/01/10 04:58:07;;;;;;;;;41.50;35.00;;;;;6.80;65.70;100961.50;5040361;28;45324;-51
2022/01/10 05:00:32;;;;;;;;;48.75;41.50;;;;;6.79;65.64;100965.00;5040256;28;45252;-51
2022/01/10 05:02:57;;;;;;;;;38.25;36.25;;;;;6.77;65.90;100966.72;5039480;28;46132;-52
2022/01/10 05:05:23;;;;;;;;;50.00;39.00;;;;;6.74;65.93;100961.50;5039551;28;46203;-48
2022/01/10 05:07:48;;;;;;;;;55.75;45.00;;;;;6.74;65.76;100964.09;5040211;28;45349;-51
2022/01/10 05:10:14;;;;;;;;;50.25;40.75;;;;;6.71;65.72;100956.22;5040311;28;45313;-50
2022/01/10 05:12:39;;;;;;;;;48.75;41.75;;;;;6.73;65.70;100974.53;5040113;28;45601;-51
2022/01/10 05:15:05;;;;;;;;;53.50;43.00;;;;;6.73;65.70;100971.91;5044116;28;46270;-52
2022/01/10 05:17:31;;;;;;;;;50.75;41.75;;;;;6.71;65.71;100981.50;5040022;28;45193;-47
2022/01/10 05:19:56;;;;;;;;;48.75;40.25;;;;;6.65;65.94;100970.16;5039970;28;45160;-51
2022/01/10 05:22:22;;;;;;;;;39.25;36.50;;;;;6.68;65.85;100982.34;5040074;28;45234;-51
2022/01/10 05:24:47;;;;;;;;;47.75;39.50;;;;;6.64;65.66;100984.06;5039655;28;45357;-52
2022/01/10 05:27:12;;;;;;;;;42.25;38.00;;;;;6.65;65.62;100984.94;5028066;28;45286;-51
2022/01/10 05:29:38;;;;;;;;;41.50;36.00;;;;;6.65;65.54;100995.38;5055509;28;45768;-50
2022/01/10 05:32:04;;;;;;;;;43.75;37.50;;;;;6.62;65.75;101000.59;5059912;28;45244;-46
2022/01/10 05:34:30;;;;;;;;;47.50;38.00;;;;;6.60;65.72;101005.81;5059610;28;46237;-47
2022/01/10 05:36:55;;;;;;;;;47.75;39.00;;;;;6.59;65.64;101013.63;5060110;28;45221;-49
2022/01/10 05:39:20;;;;;;;;;50.75;39.25;;;;;6.58;65.82;101015.38;5041778;28;45438;-48
2022/01/10 05:41:46;;;;;;;;;42.75;34.75;;;;;6.55;65.87;101017.94;5059829;28;45482;-48
2022/01/10 05:44:11;;;;;;;;;53.75;42.50;;;;;6.53;65.60;101017.06;5059699;28;47229;-52
2022/01/10 05:46:38;;;;;;;;;41.50;37.75;;;;;6.53;65.82;101026.63;5059688;28;45264;-51
2022/01/10 05:49:04;;;;;;;;;53.50;43.00;;;;;6.48;65.76;101030.09;5059828;28;45270;-52
2022/01/10 05:51:36;;;;;;;;;46.50;40.75;;;;;6.45;65.67;101031.78;5059843;28;45411;-51
2022/01/10 05:54:03;;;;;;;;;44.25;39.25;;;;;6.38;65.55;101033.50;5059442;28;46288;-51
2022/01/10 05:56:28;;;;;;;;;47.00;41.00;;;;;6.37;65.78;101050.00;5059809;28;45443;-50
2022/01/10 05:58:54;;;;;;;;;43.25;38.00;;;;;6.32;65.79;101062.16;5041661;28;45357;-48
2022/01/10 06:01:20;;;;;;;;;43.50;38.25;;;;;6.29;65.83;101067.34;5059601;28;45352;-46
2022/01/10 06:03:45;;;;;;;;;46.00;39.00;;;;;6.28;66.05;101073.44;5059290;28;45450;-47
2022/01/10 06:06:10;;;;;;;;;43.50;37.25;;;;;6.24;66.01;101077.75;5059584;28;45336;-48
2022/01/10 06:08:36;;;;;;;;;41.50;36.00;;;;;6.25;65.87;101081.22;5038329;28;45308;-47
2022/01/10 06:11:01;;;;;;;;;39.50;34.25;;;;;6.22;65.69;101081.22;5039404;28;45246;-49
2022/01/10 06:13:27;;;;;;;;;43.25;37.75;;;;;6.16;66.06;101090.75;5042819;28;46128;-47
2022/01/10 06:15:52;;;;;;;;;40.50;31.00;;;;;6.12;65.75;101104.59;5041447;28;45222;-51
2022/01/10 06:18:18;;;;;;;;;40.25;31.75;;;;;6.10;65.98;101106.34;5024993;28;45187;-49
2022/01/10 06:20:44;;;;;;;;;37.25;32.00;;;;;6.09;66.05;101112.41;5042975;28;45279;-51
2022/01/10 06:23:11;;;;;;;;;30.25;26.25;;;;;6.09;66.04;101127.16;5042689;28;45265;-49
2022/01/10 06:25:38;;;;;;;;;35.00;28.25;;;;;6.07;66.00;101129.78;5042676;28;45372;-47
2022/01/10 06:28:03;;;;;;;;;39.25;32.50;;;;;6.06;66.03;101132.38;5044977;28;45580;-53
2022/01/10 06:30:29;;;;;;;;;30.50;27.75;;;;;6.05;65.98;101136.72;5062624;28;45317;-50
2022/01/10 06:32:54;;;;;;;;;34.25;31.00;;;;;6.01;66.16;101140.13;5062436;28;45944;-49
2022/01/10 06:35:19;;;;;;;;;39.25;31.75;;;;;6.03;66.17;101141.03;5062788;28;45384;-49
2022/01/10 06:37:45;;;;;;;;;35.50;29.75;;;;;6.03;66.13;101161.06;5062630;28;45309;-48
2022/01/10 06:40:11;;;;;;;;;39.00;36.50;;;;;6.01;66.02;101161.00;5057833;28;45319;-50
2022/01/10 06:42:37;;;;;;;;;37.25;33.75;;;;;6.02;66.10;101160.16;5059849;28;45257;-50
2022/01/10 06:45:03;;;;;;;;;39.00;33.25;;;;;6.03;66.07;101161.91;5057531;28;45358;-61
2022/01/10 06:47:28;;;;;;;;;37.50;32.00;;;;;6.04;65.96;101171.50;5052590;28;45312;-54
2022/01/10 06:49:53;;;;;;;;;36.00;30.50;;;;;6.07;65.88;101174.13;5047415;28;45247;-53
2022/01/10 06:52:19;;;;;;;;;38.25;33.50;;;;;6.04;66.01;101179.34;5037451;28;46702;-54
2022/01/10 06:54:44;;;;;;;;;44.50;36.25;;;;;6.02;66.02;101181.03;5054796;28;45242;-53
2022/01/10 06:57:10;;;;;;;;;43.00;34.25;;;;;6.00;66.04;101193.22;5045331;28;45388;-54
2022/01/10 06:59:35;;;;;;;;;49.25;39.00;;;;;5.99;66.03;101189.72;5056928;28;45214;-54
2022/01/10 07:02:01;;;;;;;;;43.25;33.75;;;;;6.01;66.07;101200.16;5035329;28;46527;-51
2022/01/10 07:04:27;;;;;;;;;37.00;31.25;;;;;6.01;66.11;101214.09;5048284;28;45502;-54
2022/01/10 07:06:53;;;;;;;;;34.25;29.75;;;;;6.03;66.17;101221.94;5050386;28;45349;-52
2022/01/10 07:09:19;;;;;;;;;42.50;35.00;;;;;6.04;66.07;101228.91;5055043;28;45321;-53
2022/01/10 07:11:45;;;;;;;;;31.25;27.75;;;;;6.05;65.99;101232.38;5023989;28;46874;-53
2022/01/10 07:14:12;;;;;;;;;31.50;29.25;;;;;6.06;66.25;101248.03;5049527;28;45291;-52
2022/01/10 07:16:38;;;;;;;;;30.50;27.50;;;;;6.06;66.01;101244.56;5053371;28;45391;-53
2022/01/10 07:19:03;;;;;;;;;34.50;30.75;;;;;6.06;66.26;101252.41;5048278;28;45318;-56
2022/01/10 07:21:29;;;;;;;;;27.00;26.00;;;;;6.04;66.07;101265.44;5049263;28;45442;-57
2022/01/10 07:23:54;;;;;;;;;31.25;30.25;;;;;6.03;65.97;101270.66;5057148;28;45476;-55
2022/01/10 07:26:20;;;;;;;;;32.00;26.25;;;;;5.99;66.16;101277.56;5058986;28;45315;-57
2022/01/10 07:28:45;;;;;;;;;27.75;24.75;;;;;6.01;66.11;101276.72;5056183;28;45247;-58
2022/01/10 07:31:11;;;;;;;;;30.25;26.00;;;;;5.93;66.16;101280.03;5059693;28;46351;-56
2022/01/10 07:33:37;;;;;;;;;30.00;24.75;;;;;5.99;66.04;101295.81;5066505;28;45770;-56
2022/01/10 07:36:03;;;;;;;;;27.75;24.00;;;;;5.98;66.26;101297.53;5038052;28;45695;-56
2022/01/10 07:38:35;;;;;;;;;33.25;29.00;;;;;5.98;66.06;101302.75;5060182;28;45325;-58
2022/01/10 07:41:00;;;;;;;;;31.25;26.00;;;;;5.97;66.42;101314.00;5042206;28;48257;-56
2022/01/10 07:43:25;;;;;;;;;17.75;13.50;;;;;5.93;65.97;101321.78;5061500;28;45285;-56
2022/01/10 07:45:51;;;;;;;;;24.50;21.25;;;;;5.93;66.08;101332.22;5023916;28;45438;-56
2022/01/10 07:48:17;;;;;;;;;20.00;18.75;;;;;5.94;66.28;101344.41;5050951;28;45645;-55
2022/01/10 07:50:42;;;;;;;;;29.00;23.00;;;;;5.94;66.10;101339.19;5050093;28;46322;-55
2022/01/10 07:53:08;;;;;;;;;25.00;19.25;;;;;5.95;65.97;101349.66;5052284;28;45328;-54
2022/01/10 07:55:33;;;;;;;;;23.00;20.50;;;;;5.95;65.96;101351.34;5061126;28;45312;-55
2022/01/10 07:57:58;;;;;;;;;20.50;20.00;;;;;5.92;66.15;101352.19;5061214;28;45399;-55
2022/01/10 08:00:24;;;;;;;;;21.00;18.00;;;;;5.93;66.08;101363.53;5060787;28;46140;-55
2022/01/10 08:02:49;;;;;;;;;21.25;19.75;;;;;5.92;65.94;101372.19;5061323;28;45283;-55
2022/01/10 08:05:14;;;;;;;;;20.75;17.50;;;;;5.94;66.12;101370.50;5061145;28;45437;-55
2022/01/10 08:07:40;;;;;;;;;22.25;19.00;;;;;5.93;66.17;101380.03;5060978;28;45444;-55
2022/01/10 08:10:06;;;;;;;;;18.50;16.75;;;;;5.95;66.15;101380.97;5067152;28;45228;-54
2022/01/10 08:12:31;;;;;;;;;22.00;17.75;;;;;5.94;66.20;101381.81;5036353;28;45306;-57
2022/01/10 08:14:57;;;;;;;;;23.50;19.50;;;;;5.96;66.08;101394.88;5056739;28;45392;-57
2022/01/10 08:17:22;;;;;;;;;20.00;18.25;;;;;5.98;66.10;101395.78;5043090;28;46140;-55
2022/01/10 08:19:48;;;;;;;;;21.50;19.25;;;;;5.98;66.41;101393.16;5062217;28;46366;-55
2022/01/10 08:22:13;;;;;;;;;19.75;15.25;;;;;5.95;66.37;101404.44;5060887;28;45178;-55
2022/01/10 08:24:38;;;;;;;;;24.75;19.25;;;;;5.93;66.32;101406.13;5065024;28;45404;-57
2022/01/10 08:27:04;;;;;;;;;20.25;18.00;;;;;5.94;66.14;101399.19;5050623;28;45530;-55
2022/01/10 08:29:30;;;;;;;;;23.75;19.50;;;;;5.95;66.27;101403.53;5048709;28;46388;-55
2022/01/10 08:31:55;;;;;;;;;18.75;18.00;;;;;5.93;66.50;101410.50;5068400;28;45297;-54
2022/01/10 08:34:21;;;;;;;;;21.25;20.50;;;;;5.93;66.57;101416.56;5044161;28;45310;-54
2022/01/10 08:36:47;;;;;;;;;19.25;17.25;;;;;5.94;66.40;101420.06;5060598;28;45392;-55
2022/01/10 08:39:13;;;;;;;;;22.25;17.00;;;;;5.91;66.43;101430.44;5059921;28;46034;-55
2022/01/10 08:41:38;;;;;;;;;23.50;17.25;;;;;5.96;66.43;101441.81;5054792;28;45335;-57
2022/01/10 08:44:05;;;;;;;;;20.75;19.75;;;;;5.96;66.26;101441.81;5054183;28;45342;-55
2022/01/10 08:46:31;;;;;;;;;20.00;15.75;;;;;5.98;66.41;101442.75;5060378;28;45408;-55
2022/01/10 08:48:56;;;;;;;;;25.50;23.00;;;;;5.99;66.38;101444.53;5057298;28;46061;-55
2022/01/10 08:51:23;;;;;;;;;25.25;20.25;;;;;6.00;66.38;101443.69;5039029;28;45261;-54
2022/01/10 08:53:49;;;;;;;;;21.25;19.75;;;;;5.98;66.51;101447.97;5054038;28;45495;-55
2022/01/10 08:56:14;;;;;;;;;21.50;19.00;;;;;5.94;66.53;101441.81;5060012;28;45320;-54
2022/01/10 08:58:40;;;;;;;;;22.00;16.00;;;;;6.03;66.56;101455.91;5060172;28;45241;-54
2022/01/10 09:01:07;;;;;;;;;44.00;39.00;;;;;6.04;66.41;101458.53;5060048;28;45348;-55
2022/01/10 09:03:34;;;;;;;;;31.25;26.50;;;;;6.04;66.64;101463.75;5060280;28;45424;-55
2022/01/10 09:06:00;;;;;;;;;22.25;22.00;;;;;6.05;66.54;101464.63;5060230;28;45341;-55
2022/01/10 09:08:31;;;;;;;;;24.75;23.00;;;;;6.07;66.51;101469.00;5059798;28;45525;-55
2022/01/10 09:10:58;;;;;;;;;29.50;23.00;;;;;6.08;66.51;101475.13;5059680;28;45735;-57
2022/01/10 09:13:23;;;;;;;;;33.50;27.50;;;;;6.13;66.60;101476.94;5055812;28;45319;-57
2022/01/10 09:15:49;;;;;;;;;38.25;31.25;;;;;6.16;66.50;101487.44;5038458;28;46193;-57
2022/01/10 09:18:16;;;;;;;;;33.50;26.75;;;;;6.18;66.67;101487.47;5056214;28;45474;-53
2022/01/10 09:20:42;;;;;;;;;39.25;29.25;;;;;6.20;66.71;101492.69;5049108;28;45252;-55
2022/01/10 09:23:08;;;;;;;;;36.25;29.50;;;;;6.23;66.45;101487.53;5043335;28;45367;-57
2022/01/10 09:25:33;;;;;;;;;37.50;31.50;;;;;6.22;66.75;101491.00;5067636;28;45225;-55
2022/01/10 09:27:58;;;;;;;;;42.25;36.00;;;;;6.27;66.62;101505.84;5051579;28;46228;-57
2022/01/10 09:30:24;;;;;;;;;32.75;28.50;;;;;6.30;66.71;101505.03;5059718;28;45298;-55
2022/01/10 09:32:50;;;;;;;;;30.75;25.00;;;;;6.32;66.69;101500.72;5059703;28;45339;-55
2022/01/10 09:35:15;;;;;;;;;42.75;36.50;;;;;6.35;66.78;101513.81;5059761;28;45298;-55
2022/01/10 09:37:41;;;;;;;;;40.25;35.25;;;;;6.36;66.65;101523.41;5059664;28;45396;-54
2022/01/10 09:40:07;;;;;;;;;42.75;35.00;;;;;6.38;66.86;101532.16;5059451;28;45375;-55
2022/01/10 09:42:33;;;;;;;;;46.50;38.75;;;;;6.36;66.67;101538.19;5058313;28;45321;-55
2022/01/10 09:45:00;;;;;;;;;42.00;35.00;;;;;6.39;66.68;101535.63;5059537;28;45478;-54
2022/01/10 09:47:26;;;;;;;;;43.75;35.25;;;;;6.39;67.07;101546.06;5040862;28;46338;-55
2022/01/10 09:49:51;;;;;;;;;49.00;40.25;;;;;6.38;66.81;101549.53;5041333;28;45311;-58
2022/01/10 09:52:17;;;;;;;;;46.50;37.75;;;;;6.43;66.80;101551.38;5063273;28;45446;-55
2022/01/10 09:54:42;;;;;;;;;50.75;38.00;;;;;6.46;66.93;101542.72;5062885;28;45504;-54
2022/01/10 09:57:08;;;;;;;;;50.75;37.75;;;;;6.49;66.90;101551.47;5062730;28;46023;-54
2022/01/10 09:59:33;;;;;;;;;53.75;40.00;;;;;6.52;66.66;101562.84;5051270;28;45162;-55
2022/01/10 10:01:59;;;;;;;;;35.00;30.50;;;;;6.54;66.88;101571.56;5062919;28;45218;-54
2022/01/10 10:04:24;;;;;;;;;35.50;27.00;;;;;6.55;66.82;101574.19;5063144;28;45470;-55
2022/01/10 10:06:50;;;;;;;;;29.00;28.00;;;;;6.57;66.90;101576.84;5062722;28;46258;-54
2022/01/10 10:09:16;;;;;;;;;34.00;25.75;;;;;6.62;66.70;101583.00;5063068;28;45216;-55
2022/01/10 10:11:48;;;;;;;;;31.75;28.50;;;;;6.64;66.89;101586.50;5062720;28;45494;-54
2022/01/10 10:14:17;;;;;;;;;39.25;30.25;;;;;6.66;66.99;101580.44;5059261;28;45233;-55
2022/01/10 10:16:49;;;;;;;;;28.75;24.75;;;;;6.69;66.82;101583.97;5059970;28;47215;-55
2022/01/10 10:19:17;;;;;;;;;33.25;28.50;;;;;6.69;66.95;101581.34;5061575;28;45241;-54
2022/01/10 10:21:42;;;;;;;;;25.75;24.75;;;;;6.70;67.03;101590.97;5060093;28;45507;-55
2022/01/10 10:24:08;;;;;;;;;33.25;28.00;;;;;6.69;66.91;101597.03;5071242;28;45411;-52
2022/01/10 10:26:33;;;;;;;;;35.75;30.00;;;;;6.71;67.06;101601.41;5060553;28;46311;-57
2022/01/10 10:29:00;;;;;;;;;33.00;29.25;;;;;6.65;66.89;101583.94;5046433;28;45470;-53
2022/01/10 10:31:32;;;;;;;;;30.75;29.00;;;;;6.78;66.78;101603.28;5041076;28;45365;-55
2022/01/10 10:33:58;;;;;;;;;48.00;35.75;;;;;6.80;66.99;101604.16;5054972;28;45511;-55
2022/01/10 10:36:25;;;;;;;;;35.00;26.75;;;;;6.83;67.02;101603.38;5044174;28;45857;-53
2022/01/10 10:38:52;;;;;;;;;28.25;25.00;;;;;6.82;66.98;101597.25;5062276;28;45309;-57
2022/01/10 10:41:18;;;;;;;;;30.00;27.50;;;;;6.85;67.06;101609.47;5062077;28;45402;-57
2022/01/10 10:43:43;;;;;;;;;32.00;28.25;;;;;6.85;66.98;101612.09;5061056;28;45245;-54
2022/01/10 10:46:15;;;;;;;;;33.75;30.00;;;;;6.86;67.24;101615.59;5061799;28;45999;-56
2022/01/10 10:48:43;;;;;;;;;36.25;27.50;;;;;6.87;67.20;101623.44;5061135;28;45493;-55
2022/01/10 10:51:10;;;;;;;;;31.75;27.00;;;;;6.90;66.63;101628.72;5060835;28;45317;-54
2022/01/10 10:53:35;;;;;;;;;40.25;33.25;;;;;6.92;67.21;101627.00;5062104;28;45464;-51
2022/01/10 10:56:03;;;;;;;;;24.00;23.75;;;;;6.93;66.99;101636.59;5061982;28;46659;-54
2022/01/10 10:58:30;;;;;;;;;50.25;32.00;;;;;6.94;66.99;101627.91;5044248;28;45433;-55
2022/01/10 11:00:57;;;;;;;;;43.25;34.75;;;;;6.94;67.20;101624.41;5061759;28;45368;-55
2022/01/10 11:03:23;;;;;;;;;37.25;30.50;;;;;6.95;67.12;101621.81;5042204;28;45214;-55
2022/01/10 11:05:50;;;;;;;;;45.25;35.00;;;;;6.96;67.10;101625.31;5061688;28;45237;-55
2022/01/10 11:08:17;;;;;;;;;43.00;33.00;;;;;7.00;67.23;101629.72;5062063;28;45510;-55
2022/01/10 11:10:42;;;;;;;;;35.50;32.50;;;;;7.01;66.75;101631.50;5061775;28;45503;-55
2022/01/10 11:13:11;;;;;;;;;45.50;35.00;;;;;6.99;67.05;101623.63;5057579;28;45240;-55
2022/01/10 11:15:38;;;;;;;;;29.75;28.25;;;;;7.01;67.23;101639.34;5061667;28;46703;-55
2022/01/10 11:18:07;;;;;;;;;32.25;28.50;;;;;7.00;67.14;101640.19;5059732;28;45385;-56
2022/01/10 11:20:47;;;;;;;;;30.75;24.75;;;;;7.00;67.08;101643.66;5044005;28;45372;-55
2022/01/10 11:23:13;;;;;;;;;35.75;23.75;;;;;6.93;67.28;101639.22;5063834;28;45495;-53